Terminal Aerodrome Forecast
Issued by NWS Anchorage, AK

Home | Current Version | Previous Version | Text Only | Print | Product List | Glossary On
Versions: 1 2 3 4 5 6 7 8 9 10 11 12 13 14 15 16 17 18 19 20 21 22 23 24 25 26 27 28 29 30 31 32 33 34 35 36 37 38 39 40
000
FTAK31 PANC 240742 AAB
TAFANC
TAF AMD
PANC 240742Z 2408/2512 VRB05KT P6SM FEW015 BKN035 OVC220
      TEMPO 2409/2412 BKN025
     FM241200 15005KT P6SM VCSH SCT025 OVC040
     FM241500 15006KT 3SM -SN SCT015 OVC025
     FM250000 15005KT P6SM VCSH SCT025 OVC040
     FM250300 VRB04KT P6SM SCT040 BKN070=

USA.gov is the U.S. government's official web portal to all federal, state and local government web resources and services.